createdAt,value
2018-06-27T00:01:10.384Z,23.13
2018-06-27T00:03:41.114Z,23.15
2018-06-27T00:06:11.804Z,23.16
2018-06-27T00:08:42.234Z,23.18
2018-06-27T00:11:12.998Z,22.94
2018-06-27T00:13:43.221Z,23.06
2018-06-27T00:16:13.325Z,22.92
2018-06-27T00:18:44.382Z,22.91
2018-06-27T00:21:15.168Z,23.19
2018-06-27T00:23:45.823Z,23.21
2018-06-27T00:26:16.708Z,23.28
2018-06-27T00:28:47.863Z,23.30
2018-06-27T00:31:18.546Z,23.27
2018-06-27T00:33:49.340Z,23.07
2018-06-27T00:36:19.961Z,23.11
2018-06-27T00:38:50.761Z,23.08
2018-06-27T00:41:21.358Z,23.10
2018-06-27T00:43:52.114Z,23.11
2018-06-27T00:46:22.724Z,22.97
2018-06-27T00:48:53.565Z,22.92
2018-06-27T00:51:24.023Z,22.89
2018-06-27T00:53:59.969Z,22.91
2018-06-27T00:56:30.781Z,22.91
2018-06-27T00:59:01.651Z,22.87
2018-06-27T01:01:31.836Z,22.99
2018-06-27T01:04:02.654Z,23.11
2018-06-27T01:06:33.481Z,22.84
2018-06-27T01:09:05.056Z,22.98
2018-06-27T01:11:35.789Z,23.02
2018-06-27T01:14:06.714Z,23.00
2018-06-27T01:16:37.363Z,23.06
2018-06-27T01:19:08.334Z,23.13
2018-06-27T01:21:38.441Z,22.99
2018-06-27T01:24:09.470Z,22.83
2018-06-27T01:26:40.263Z,23.08
2018-06-27T01:29:10.913Z,23.19
2018-06-27T01:31:41.564Z,22.68
2018-06-27T01:34:12.538Z,22.46
2018-06-27T01:36:43.217Z,22.47
2018-06-27T01:39:13.956Z,22.33
2018-06-27T01:41:44.639Z,22.31
2018-06-27T01:44:15.108Z,22.43
2018-06-27T01:46:45.772Z,22.70
2018-06-27T01:49:16.445Z,22.98
2018-06-27T01:51:46.617Z,23.11
2018-06-27T01:54:17.114Z,23.19
2018-06-27T01:56:47.697Z,23.05
2018-06-27T01:59:18.378Z,22.82
2018-06-27T02:01:48.953Z,22.72
2018-06-27T02:04:19.660Z,22.54
2018-06-27T02:06:50.250Z,22.53
2018-06-27T02:09:21.035Z,22.83
2018-06-27T02:11:51.605Z,23.08
2018-06-27T02:14:22.424Z,23.13
2018-06-27T02:16:54.621Z,23.28
2018-06-27T02:19:27.671Z,22.78
2018-06-27T02:21:58.420Z,22.39
2018-06-27T02:24:29.201Z,22.55
2018-06-27T02:26:59.909Z,22.75
2018-06-27T02:29:30.544Z,22.75
2018-06-27T02:32:01.221Z,22.65
2018-06-27T02:34:33.460Z,22.53
2018-06-27T02:37:03.637Z,22.56
2018-06-27T02:39:34.378Z,22.86
2018-06-27T02:42:05.086Z,22.74
2018-06-27T02:44:35.790Z,22.78
2018-06-27T02:47:06.502Z,22.61
2018-06-27T02:49:37.411Z,22.40
2018-06-27T02:52:07.670Z,22.46
2018-06-27T02:54:38.485Z,22.59
2018-06-27T02:57:08.526Z,22.44
2018-06-27T02:59:39.385Z,22.31
2018-06-27T03:02:10.044Z,22.72
2018-06-27T03:04:40.806Z,22.86
2018-06-27T03:09:40.410Z,23.20
2018-06-27T03:12:11.363Z,23.07
2018-06-27T03:14:41.982Z,23.16
2018-06-27T03:17:12.661Z,23.32
2018-06-27T03:19:43.248Z,23.36
2018-06-27T03:22:13.939Z,23.26
2018-06-27T03:24:44.483Z,22.97
2018-06-27T03:27:15.414Z,22.78
2018-06-27T03:29:46.052Z,23.00
2018-06-27T03:32:16.741Z,23.26
2018-06-27T03:34:47.629Z,23.44
2018-06-27T03:37:18.257Z,23.34
2018-06-27T03:39:48.880Z,23.29
2018-06-27T03:42:19.733Z,23.20
2018-06-27T03:44:50.477Z,23.18
2018-06-27T03:47:21.487Z,22.92
2018-06-27T03:49:52.056Z,22.68
2018-06-27T03:52:23.874Z,22.77
2018-06-27T03:54:54.512Z,22.83
2018-06-27T03:57:25.440Z,23.19
2018-06-27T03:59:56.085Z,23.14
2018-06-27T04:02:26.889Z,22.89
2018-06-27T04:04:57.528Z,23.17
2018-06-27T04:07:28.313Z,23.31
2018-06-27T04:09:59.025Z,23.44
2018-06-27T04:12:29.711Z,23.44
2018-06-27T04:15:00.360Z,23.45
2018-06-27T04:17:31.645Z,23.49
2018-06-27T04:20:02.469Z,23.55
2018-06-27T04:22:36.211Z,23.53
2018-06-27T04:25:06.524Z,23.54
2018-06-27T04:27:37.384Z,23.49
2018-06-27T04:30:08.028Z,23.50
2018-06-27T04:32:38.837Z,23.45
2018-06-27T04:35:09.164Z,23.46
2018-06-27T04:37:39.440Z,23.54
2018-06-27T04:40:10.077Z,23.47
2018-06-27T04:42:40.929Z,23.53
2018-06-27T04:45:11.514Z,23.54
2018-06-27T04:47:42.376Z,23.38
2018-06-27T04:50:13.058Z,23.70
2018-06-27T04:52:43.805Z,23.83
2018-06-27T04:55:14.733Z,23.91
2018-06-27T04:57:45.677Z,24.19
2018-06-27T05:00:16.394Z,24.04
2018-06-27T05:02:47.372Z,23.77
2018-06-27T05:05:18.110Z,23.88
2018-06-27T05:07:48.814Z,24.02
2018-06-27T05:10:19.495Z,24.20
2018-06-27T05:12:49.994Z,24.13
2018-06-27T05:15:20.743Z,24.12
2018-06-27T05:17:51.658Z,24.06
2018-06-27T05:20:22.326Z,24.06
2018-06-27T05:22:53.162Z,24.06
2018-06-27T05:25:23.910Z,24.18
2018-06-27T05:27:54.766Z,23.74
2018-06-27T05:30:24.869Z,23.68
2018-06-27T05:32:55.634Z,23.83
2018-06-27T05:35:26.365Z,23.98
2018-06-27T05:37:57.013Z,23.89
2018-06-27T05:40:27.698Z,24.03
2018-06-27T05:42:58.641Z,24.03
2018-06-27T05:45:28.909Z,23.87
2018-06-27T05:47:59.580Z,24.09
2018-06-27T05:50:30.271Z,23.98
2018-06-27T05:53:02.131Z,24.06
2018-06-27T05:55:32.598Z,23.95
2018-06-27T05:58:02.966Z,23.96
2018-06-27T06:00:33.628Z,24.11
2018-06-27T06:03:04.633Z,24.12
2018-06-27T06:05:35.321Z,24.22
2018-06-27T06:08:06.153Z,24.25
2018-06-27T06:10:36.660Z,24.22
2018-06-27T06:13:07.634Z,24.24
2018-06-27T06:15:38.337Z,24.31
2018-06-27T06:18:09.017Z,24.54
2018-06-27T06:20:39.206Z,24.72
2018-06-27T06:23:10.263Z,24.80
2018-06-27T06:25:40.361Z,24.63
2018-06-27T06:28:11.234Z,24.30
2018-06-27T06:30:41.957Z,23.85
2018-06-27T06:33:12.246Z,24.17
2018-06-27T06:35:42.991Z,24.05
2018-06-27T06:38:13.793Z,24.39
2018-06-27T06:40:44.573Z,24.36
2018-06-27T06:43:15.600Z,24.53
2018-06-27T06:45:46.318Z,24.40
2018-06-27T06:48:17.670Z,24.48
2018-06-27T06:50:48.391Z,24.46
2018-06-27T06:53:19.185Z,24.39
2018-06-27T06:55:49.345Z,24.22
2018-06-27T06:58:20.087Z,24.34
2018-06-27T07:00:50.757Z,23.91
2018-06-27T07:03:21.425Z,23.82
2018-06-27T07:05:52.093Z,24.02
2018-06-27T07:08:22.814Z,23.95
2018-06-27T07:10:53.489Z,23.69
2018-06-27T07:13:23.756Z,23.90
2018-06-27T07:15:54.329Z,23.92
2018-06-27T07:18:25.286Z,23.55
2018-06-27T07:20:55.380Z,23.18
2018-06-27T07:23:26.089Z,23.30
2018-06-27T07:25:56.701Z,22.95
2018-06-27T07:28:27.335Z,22.75
2018-06-27T07:30:58.446Z,22.63
2018-06-27T07:33:29.235Z,22.67
2018-06-27T07:35:59.840Z,22.49
2018-06-27T07:38:30.483Z,22.49
2018-06-27T07:41:01.358Z,22.74
2018-06-27T07:43:32.065Z,22.95
2018-06-27T07:46:03.235Z,22.81
2018-06-27T07:48:33.862Z,23.09
2018-06-27T07:51:04.551Z,23.07
2018-06-27T07:53:35.283Z,22.95
2018-06-27T07:56:06.452Z,22.96
2018-06-27T07:58:37.083Z,23.04
2018-06-27T08:01:07.894Z,22.76
2018-06-27T08:03:38.598Z,22.72
2018-06-27T08:06:09.690Z,22.51
2018-06-27T08:08:40.475Z,22.13
2018-06-27T08:11:10.884Z,22.23
2018-06-27T08:13:41.468Z,22.03
2018-06-27T08:16:12.142Z,21.90
2018-06-27T08:18:43.922Z,21.97
2018-06-27T08:21:15.030Z,22.04
2018-06-27T08:23:45.582Z,22.00
2018-06-27T08:26:16.440Z,22.36
2018-06-27T08:28:47.166Z,22.82
2018-06-27T08:31:17.960Z,23.18
2018-06-27T08:33:48.514Z,23.63
2018-06-27T08:36:19.414Z,24.16
2018-06-27T08:38:50.086Z,24.78
2018-06-27T08:41:20.850Z,25.71
2018-06-27T08:43:51.074Z,26.63
2018-06-27T08:46:21.925Z,27.08
2018-06-27T08:48:52.547Z,27.61
2018-06-27T08:51:23.321Z,27.70
2018-06-27T08:53:54.005Z,28.23
2018-06-27T08:56:24.862Z,28.80
2018-06-27T08:58:56.243Z,28.82
2018-06-27T09:01:26.477Z,28.69
2018-06-27T09:03:56.701Z,27.91
2018-06-27T09:06:26.702Z,27.92
2018-06-27T09:08:57.685Z,28.16
2018-06-27T09:11:28.609Z,27.18
2018-06-27T09:13:59.613Z,26.96
2018-06-27T09:16:30.509Z,26.65
2018-06-27T09:19:01.525Z,26.48
2018-06-27T09:21:32.340Z,26.17
2018-06-27T09:24:04.352Z,25.87
2018-06-27T09:26:35.414Z,26.27
2018-06-27T09:29:06.721Z,26.61
2018-06-27T09:31:38.698Z,27.26
2018-06-27T09:34:10.179Z,26.42
2018-06-27T09:36:41.208Z,26.73
2018-06-27T09:39:12.669Z,27.17
2018-06-27T09:41:43.898Z,26.69
2018-06-27T09:44:15.005Z,26.49
2018-06-27T09:46:46.943Z,26.02
2018-06-27T09:49:18.092Z,26.23
2018-06-27T09:51:49.456Z,26.89
2018-06-27T09:54:21.220Z,27.16
2018-06-27T09:56:52.289Z,26.69
2018-06-27T09:59:23.833Z,26.38
2018-06-27T10:01:54.996Z,25.91
2018-06-27T10:04:25.492Z,26.02
2018-06-27T10:06:57.004Z,26.40
2018-06-27T10:09:28.400Z,26.89
2018-06-27T10:11:59.948Z,27.05
2018-06-27T10:14:31.460Z,26.98
2018-06-27T10:17:04.115Z,26.60
2018-06-27T10:19:34.968Z,27.15
2018-06-27T10:22:06.096Z,26.77
2018-06-27T10:24:37.167Z,26.50
2018-06-27T10:27:08.085Z,26.43
2018-06-27T10:29:39.292Z,26.61
2018-06-27T10:32:10.280Z,26.86
2018-06-27T10:34:41.488Z,27.52
2018-06-27T10:37:12.740Z,27.77
2018-06-27T10:39:44.992Z,27.91
2018-06-27T10:42:17.090Z,27.19
2018-06-27T10:44:49.221Z,26.77
2018-06-27T10:47:20.250Z,27.69
2018-06-27T10:49:51.296Z,27.21
2018-06-27T10:52:22.920Z,26.68
2018-06-27T10:54:54.969Z,27.08
2018-06-27T10:57:26.898Z,27.03
2018-06-27T10:59:58.001Z,27.30
2018-06-27T11:02:29.936Z,26.80
2018-06-27T11:05:01.545Z,26.76
2018-06-27T11:07:33.433Z,26.22
2018-06-27T11:10:04.937Z,26.46
2018-06-27T11:12:36.005Z,27.11
2018-06-27T11:15:07.940Z,26.69
2018-06-27T11:17:38.950Z,27.03
2018-06-27T11:20:10.148Z,27.36
2018-06-27T11:22:41.375Z,27.44
2018-06-27T11:25:13.369Z,27.35
2018-06-27T11:27:44.469Z,27.33
2018-06-27T11:30:15.872Z,26.32
2018-06-27T11:32:46.970Z,26.13
2018-06-27T11:35:18.544Z,26.37
2018-06-27T11:37:49.590Z,27.43
2018-06-27T11:40:20.701Z,27.06
2018-06-27T11:42:51.716Z,27.04
2018-06-27T11:45:22.822Z,27.26
2018-06-27T11:47:54.620Z,27.33
2018-06-27T11:50:26.613Z,27.90
2018-06-27T11:52:57.801Z,27.64
2018-06-27T11:55:29.068Z,26.71
2018-06-27T11:58:00.499Z,26.97
2018-06-27T12:00:31.838Z,26.89
2018-06-27T12:03:02.716Z,26.15
2018-06-27T12:05:33.999Z,26.31
2018-06-27T12:08:05.094Z,26.25
2018-06-27T12:10:36.273Z,27.06
2018-06-27T12:13:07.222Z,27.33
2018-06-27T12:15:38.380Z,27.37
2018-06-27T12:18:09.434Z,27.56
2018-06-27T12:20:40.765Z,27.96
2018-06-27T12:23:11.801Z,28.07
2018-06-27T12:25:42.914Z,27.32
2018-06-27T12:28:13.892Z,27.91
2018-06-27T12:30:45.376Z,27.77
2018-06-27T12:33:16.404Z,27.51
2018-06-27T12:35:47.805Z,27.90
2018-06-27T12:38:18.860Z,28.45
2018-06-27T12:40:49.939Z,28.35
2018-06-27T12:43:20.896Z,28.54
2018-06-27T12:45:52.165Z,28.63
2018-06-27T12:48:23.385Z,28.42
2018-06-27T12:50:54.437Z,28.23
2018-06-27T12:53:25.412Z,28.61
2018-06-27T12:55:56.195Z,28.00
2018-06-27T12:58:27.497Z,27.81
2018-06-27T13:00:57.984Z,28.08
2018-06-27T13:03:29.077Z,28.36
2018-06-27T13:06:00.284Z,28.33
2018-06-27T13:08:31.296Z,28.42
2018-06-27T13:11:02.265Z,28.67
2018-06-27T13:13:33.430Z,29.22
2018-06-27T13:16:04.407Z,29.47
2018-06-27T13:18:35.399Z,30.08
2018-06-27T13:21:06.866Z,30.30
2018-06-27T13:23:37.393Z,29.79
2018-06-27T13:26:07.966Z,30.60
2018-06-27T13:28:38.959Z,29.53
2018-06-27T13:31:10.351Z,29.96
2018-06-27T13:33:41.587Z,29.16
2018-06-27T13:36:13.063Z,28.61
2018-06-27T13:38:44.057Z,28.26
2018-06-27T13:41:15.161Z,28.17
2018-06-27T13:43:46.738Z,28.32
2018-06-27T13:46:17.702Z,29.02
2018-06-27T13:48:48.739Z,29.14
2018-06-27T13:51:19.760Z,29.09
2018-06-27T13:53:50.224Z,29.17
2018-06-27T13:56:21.208Z,28.28
2018-06-27T13:58:52.082Z,28.07
2018-06-27T14:01:23.979Z,28.04
2018-06-27T14:03:55.204Z,28.66
2018-06-27T14:06:26.375Z,28.47
2018-06-27T14:08:57.532Z,28.45
2018-06-27T14:11:28.725Z,28.85
2018-06-27T14:13:59.808Z,28.37
2018-06-27T14:16:30.885Z,28.52
2018-06-27T14:19:01.413Z,28.92
2018-06-27T14:21:31.732Z,29.16
2018-06-27T14:24:02.894Z,29.04
2018-06-27T14:26:33.807Z,29.42
2018-06-27T14:29:05.043Z,29.22
2018-06-27T14:31:36.184Z,28.62
2018-06-27T14:34:07.322Z,28.77
2018-06-27T14:36:38.285Z,29.05
2018-06-27T14:39:11.280Z,28.97
2018-06-27T14:41:42.388Z,29.18
2018-06-27T14:44:13.405Z,28.92
2018-06-27T14:46:44.407Z,29.50
2018-06-27T14:49:15.717Z,30.20
2018-06-27T14:51:46.770Z,30.13
2018-06-27T14:54:17.971Z,29.61
2018-06-27T14:56:48.849Z,29.95
2018-06-27T14:59:20.034Z,29.79
2018-06-27T15:01:51.005Z,29.39
2018-06-27T15:04:21.831Z,29.10
2018-06-27T15:06:52.460Z,28.27
2018-06-27T15:09:23.468Z,28.46
2018-06-27T15:11:54.101Z,28.63
2018-06-27T15:14:25.102Z,28.65
2018-06-27T15:16:56.122Z,28.76
2018-06-27T15:19:27.137Z,28.66
2018-06-27T15:21:58.177Z,28.90
2018-06-27T15:24:29.246Z,28.81
2018-06-27T15:26:59.890Z,28.67
2018-06-27T15:29:30.906Z,29.13
2018-06-27T15:32:01.467Z,29.48
2018-06-27T15:34:32.566Z,29.94
2018-06-27T15:37:03.324Z,29.62
2018-06-27T15:39:34.497Z,29.13
2018-06-27T15:42:05.216Z,29.23
2018-06-27T15:44:35.742Z,28.66
2018-06-27T15:47:06.542Z,28.93
2018-06-27T15:49:37.626Z,28.86
2018-06-27T15:52:08.284Z,28.40
2018-06-27T15:54:38.491Z,28.28
2018-06-27T15:57:09.305Z,28.35
2018-06-27T15:59:44.899Z,28.30
2018-06-27T16:02:15.737Z,27.58
2018-06-27T16:04:46.719Z,27.38
2018-06-27T16:07:17.386Z,27.30
2018-06-27T16:09:49.238Z,27.07
2018-06-27T16:12:20.140Z,27.24
2018-06-27T16:14:51.082Z,26.79
2018-06-27T16:17:21.936Z,26.53
2018-06-27T16:19:51.917Z,26.51
2018-06-27T16:22:22.646Z,26.41
2018-06-27T16:24:53.524Z,26.51
2018-06-27T16:27:24.253Z,26.54
2018-06-27T16:29:55.353Z,26.75
2018-06-27T16:32:26.082Z,26.53
2018-06-27T16:34:56.859Z,26.44
2018-06-27T16:37:27.538Z,26.21
2018-06-27T16:39:58.451Z,26.29
2018-06-27T16:42:29.222Z,26.17
2018-06-27T16:44:59.965Z,26.02
2018-06-27T16:47:30.698Z,26.11
2018-06-27T16:50:01.559Z,26.06
2018-06-27T16:52:32.259Z,26.13
2018-06-27T16:55:03.119Z,26.18
2018-06-27T16:57:33.834Z,26.09
2018-06-27T17:00:04.859Z,25.87
2018-06-27T17:02:34.942Z,26.19
2018-06-27T17:05:05.975Z,25.92
2018-06-27T17:07:36.944Z,25.89
2018-06-27T17:10:07.441Z,26.03
2018-06-27T17:12:38.078Z,25.89
2018-06-27T17:15:08.758Z,25.88
2018-06-27T17:17:39.439Z,25.70
2018-06-27T17:20:10.214Z,25.59
2018-06-27T17:22:40.962Z,25.55
2018-06-27T17:25:12.248Z,25.50
2018-06-27T17:27:42.990Z,25.49
2018-06-27T17:30:13.717Z,25.58
2018-06-27T17:32:44.203Z,25.47
2018-06-27T17:35:14.994Z,25.23
2018-06-27T17:37:45.771Z,25.50
2018-06-27T17:40:16.528Z,25.60
2018-06-27T17:42:47.878Z,25.12
2018-06-27T17:45:18.854Z,25.30
2018-06-27T17:47:49.518Z,25.38
2018-06-27T17:50:20.330Z,25.26
2018-06-27T17:52:51.020Z,25.16
2018-06-27T17:55:22.035Z,24.99
2018-06-27T17:57:52.854Z,25.16
2018-06-27T18:00:23.134Z,25.21
2018-06-27T18:02:53.920Z,25.05
2018-06-27T18:05:24.690Z,25.37
2018-06-27T18:07:55.342Z,25.41
2018-06-27T18:10:26.082Z,25.46
2018-06-27T18:12:56.871Z,25.40
2018-06-27T18:15:27.555Z,25.50
2018-06-27T18:17:58.280Z,25.55
2018-06-27T18:20:29.069Z,25.63
2018-06-27T18:22:59.759Z,25.78
2018-06-27T18:25:31.956Z,25.77
2018-06-27T18:28:03.470Z,25.71
2018-06-27T18:30:34.631Z,25.52
2018-06-27T18:33:05.410Z,25.65
2018-06-27T18:35:36.942Z,25.49
2018-06-27T18:38:07.842Z,25.30
2018-06-27T18:40:38.484Z,25.03
2018-06-27T18:43:09.102Z,24.79
2018-06-27T18:45:39.530Z,24.47
2018-06-27T18:48:10.219Z,24.43
2018-06-27T18:50:40.955Z,24.26
2018-06-27T18:53:11.581Z,24.15
2018-06-27T18:55:42.320Z,24.28
2018-06-27T18:58:13.406Z,24.52
2018-06-27T19:00:44.189Z,24.78
2018-06-27T19:03:16.164Z,24.84
2018-06-27T19:05:46.580Z,24.96
2018-06-27T19:08:17.161Z,25.07
2018-06-27T19:10:48.938Z,25.02
2018-06-27T19:13:19.622Z,25.02
2018-06-27T19:15:50.486Z,25.14
2018-06-27T19:18:21.570Z,25.14
2018-06-27T19:20:52.414Z,25.16
2018-06-27T19:23:23.094Z,25.11
2018-06-27T19:25:53.890Z,25.05
2018-06-27T19:28:24.584Z,25.02
2018-06-27T19:30:55.362Z,24.98
2018-06-27T19:33:26.106Z,25.02
2018-06-27T19:35:56.201Z,25.07
2018-06-27T19:38:27.001Z,25.13
2018-06-27T19:40:57.941Z,25.19
2018-06-27T19:43:28.630Z,24.95
2018-06-27T19:45:59.466Z,24.97
2018-06-27T19:48:30.151Z,24.76
2018-06-27T19:51:00.723Z,24.92
2018-06-27T19:53:30.817Z,25.21
2018-06-27T19:56:01.402Z,25.06
2018-06-27T19:58:31.960Z,25.25
2018-06-27T20:01:02.693Z,25.35
2018-06-27T20:03:33.267Z,25.30
2018-06-27T20:06:04.755Z,25.33
2018-06-27T20:08:35.502Z,25.20
2018-06-27T20:11:06.162Z,25.02
2018-06-27T20:13:36.702Z,25.20
2018-06-27T20:16:07.676Z,25.17
2018-06-27T20:18:38.074Z,25.16
2018-06-27T20:21:08.325Z,25.10
2018-06-27T20:23:39.051Z,25.25
2018-06-27T20:26:09.777Z,25.36
2018-06-27T20:28:40.514Z,25.34
2018-06-27T20:31:11.556Z,25.36
2018-06-27T20:33:42.107Z,25.26
2018-06-27T20:36:12.859Z,25.10
2018-06-27T20:38:43.609Z,25.24
2018-06-27T20:41:14.820Z,25.35
2018-06-27T20:43:45.461Z,25.44
2018-06-27T20:46:16.510Z,25.51
2018-06-27T20:48:47.202Z,25.41
2018-06-27T20:51:17.870Z,25.17
2018-06-27T20:53:48.510Z,25.38
2018-06-27T20:56:19.495Z,25.46
2018-06-27T20:58:50.153Z,25.52
2018-06-27T21:01:20.855Z,25.44
2018-06-27T21:03:51.658Z,25.36
2018-06-27T21:06:22.355Z,25.39
2018-06-27T21:08:53.958Z,25.43
2018-06-27T21:11:25.633Z,25.24
2018-06-27T21:13:56.206Z,25.12
2018-06-27T21:16:27.266Z,25.26
2018-06-27T21:18:58.131Z,25.05
2018-06-27T21:21:28.937Z,25.04
2018-06-27T21:23:59.563Z,25.19
2018-06-27T21:26:30.574Z,25.21
2018-06-27T21:29:01.344Z,25.20
2018-06-27T21:31:32.046Z,25.30
2018-06-27T21:34:02.637Z,25.04
2018-06-27T21:36:33.665Z,25.08
2018-06-27T21:39:05.368Z,25.10
2018-06-27T21:41:36.024Z,24.91
2018-06-27T21:44:06.967Z,24.84
2018-06-27T21:46:37.801Z,24.90
2018-06-27T21:49:08.439Z,24.81
2018-06-27T21:51:39.345Z,24.92
2018-06-27T21:54:10.001Z,25.26
2018-06-27T21:56:40.679Z,25.14
2018-06-27T21:59:10.942Z,25.09
2018-06-27T22:01:42.851Z,25.14
2018-06-27T22:04:14.582Z,24.90
2018-06-27T22:06:45.312Z,25.08
2018-06-27T22:09:16.077Z,25.12
2018-06-27T22:11:46.824Z,24.94
2018-06-27T22:14:17.793Z,25.08
2018-06-27T22:16:48.517Z,25.21
2018-06-27T22:19:19.353Z,25.37
2018-06-27T22:21:50.037Z,25.20
2018-06-27T22:24:21.096Z,25.25
2018-06-27T22:26:53.438Z,25.14
2018-06-27T22:29:24.121Z,25.26
2018-06-27T22:31:54.941Z,25.28
2018-06-27T22:34:25.153Z,25.30
2018-06-27T22:36:55.770Z,25.31
2018-06-27T22:39:26.998Z,25.32
2018-06-27T22:41:57.632Z,25.21
2018-06-27T22:44:28.546Z,25.36
2018-06-27T22:46:59.258Z,25.42
2018-06-27T22:49:29.837Z,25.38
2018-06-27T22:52:00.495Z,25.43
2018-06-27T22:54:31.161Z,25.46
2018-06-27T22:57:01.824Z,25.40
2018-06-27T22:59:32.511Z,25.42
2018-06-27T23:02:03.538Z,25.49
2018-06-27T23:04:34.507Z,24.88
2018-06-27T23:07:05.222Z,25.19
2018-06-27T23:09:36.213Z,25.05
2018-06-27T23:12:06.785Z,25.23
2018-06-27T23:14:36.973Z,25.40
2018-06-27T23:17:07.592Z,25.28
2018-06-27T23:19:38.444Z,25.44
2018-06-27T23:22:18.481Z,25.46
2018-06-27T23:24:49.306Z,25.25
2018-06-27T23:27:19.955Z,25.40
2018-06-27T23:29:50.739Z,25.38
2018-06-27T23:32:20.994Z,25.25
2018-06-27T23:34:51.774Z,25.46
2018-06-27T23:37:22.523Z,25.48
2018-06-27T23:39:53.326Z,25.52
2018-06-27T23:42:24.049Z,25.57
2018-06-27T23:44:54.902Z,25.37
2018-06-27T23:47:25.574Z,25.37
2018-06-27T23:49:56.406Z,25.42
2018-06-27T23:52:27.093Z,25.44
2018-06-27T23:54:57.673Z,25.46
2018-06-27T23:57:28.342Z,25.47
2018-06-27T23:59:59.036Z,25.57
